createdAt,value
2022-08-12T00:00:52.827Z,28.90
2022-08-12T00:03:40.722Z,28.90
2022-08-12T00:06:29.885Z,28.90
2022-08-12T00:09:18.976Z,28.50
2022-08-12T00:12:10.131Z,28.30
2022-08-12T00:15:00.024Z,28.30
2022-08-12T00:17:49.331Z,28.70
2022-08-12T00:20:37.076Z,28.90
2022-08-12T00:23:29.228Z,28.50
2022-08-12T00:26:22.951Z,28.50
2022-08-12T00:29:12.877Z,28.80
2022-08-12T00:32:02.591Z,29.10
2022-08-12T00:34:55.060Z,29.10
2022-08-12T00:37:43.805Z,29.00
2022-08-12T00:40:33.410Z,29.20
2022-08-12T00:43:04.982Z,29.00
2022-08-12T00:45:56.784Z,28.30
2022-08-12T00:48:36.526Z,28.10
2022-08-12T00:51:11.034Z,28.20
2022-08-12T00:53:43.286Z,28.50
2022-08-12T00:56:14.716Z,28.60
2022-08-12T00:58:54.084Z,28.60
2022-08-12T01:01:26.919Z,28.30
2022-08-12T01:04:19.139Z,28.40
2022-08-12T01:07:07.605Z,28.80
2022-08-12T01:12:41.872Z,29.40
2022-08-12T01:15:15.539Z,29.70
2022-08-12T01:17:48.379Z,29.60
2022-08-12T01:20:37.091Z,29.50
2022-08-12T01:23:40.430Z,29.20
2022-08-12T01:26:19.967Z,29.60
2022-08-12T01:28:54.221Z,29.60
2022-08-12T01:31:28.979Z,29.60
2022-08-12T01:34:31.113Z,29.90
2022-08-12T01:37:03.689Z,30.30
2022-08-12T01:39:37.147Z,30.40
2022-08-12T01:42:13.097Z,30.30
2022-08-12T01:44:44.480Z,30.60
2022-08-12T01:47:32.277Z,30.90
2022-08-12T01:50:28.102Z,30.70
2022-08-12T01:53:09.255Z,30.70
2022-08-12T01:55:43.028Z,30.00
2022-08-12T01:58:27.319Z,29.90
2022-08-12T02:01:01.982Z,29.30
2022-08-12T02:04:15.638Z,28.60
2022-08-12T02:07:13.769Z,27.90
2022-08-12T02:10:49.957Z,27.20
2022-08-12T02:13:18.189Z,26.70
2022-08-12T02:16:20.304Z,26.30
2022-08-12T02:19:01.599Z,26.00
2022-08-12T02:21:43.485Z,25.80
2022-08-12T02:24:19.514Z,25.70
2022-08-12T02:26:52.620Z,25.50
2022-08-12T02:29:24.001Z,25.30
2022-08-12T02:32:12.542Z,25.20
2022-08-12T02:34:46.945Z,25.10
2022-08-12T02:37:18.693Z,24.90
2022-08-12T02:39:52.916Z,24.70
2022-08-12T02:42:25.402Z,24.60
2022-08-12T02:44:59.853Z,24.40
2022-08-12T02:47:59.835Z,24.20
2022-08-12T02:50:35.615Z,24.10
2022-08-12T02:53:07.600Z,24.00
2022-08-12T02:55:39.677Z,23.80
2022-08-12T02:58:14.675Z,23.70
2022-08-12T03:00:47.498Z,23.60
2022-08-12T03:03:24.942Z,23.50
2022-08-12T03:06:02.721Z,23.40
2022-08-12T03:08:39.186Z,23.30
2022-08-12T03:11:19.595Z,23.20
2022-08-12T03:13:55.517Z,23.20
2022-08-12T03:16:27.895Z,23.00
2022-08-12T03:19:06.420Z,22.90
2022-08-12T03:22:05.885Z,22.90
2022-08-12T03:24:32.686Z,22.80
2022-08-12T03:27:06.911Z,22.60
2022-08-12T03:29:43.336Z,22.50
2022-08-12T03:32:36.387Z,22.30
2022-08-12T03:35:40.268Z,22.30
2022-08-12T03:38:13.001Z,22.20
2022-08-12T03:41:13.867Z,22.10
2022-08-12T03:44:10.422Z,22.00
2022-08-12T03:47:02.459Z,21.90
2022-08-12T03:49:50.026Z,21.70
2022-08-12T03:52:44.426Z,21.60
2022-08-12T03:55:45.304Z,21.50
2022-08-12T03:58:34.675Z,21.50
2022-08-12T04:01:07.371Z,21.30
2022-08-12T04:03:56.948Z,21.20
2022-08-12T04:06:35.316Z,21.10
2022-08-12T04:09:15.787Z,21.00
2022-08-12T04:12:05.652Z,20.90
2022-08-12T04:14:39.105Z,20.90
2022-08-12T04:17:11.217Z,20.80
2022-08-12T04:19:43.069Z,20.70
2022-08-12T04:22:14.777Z,20.60
2022-08-12T04:24:50.445Z,20.60
2022-08-12T04:27:22.243Z,20.50
2022-08-12T04:30:21.291Z,20.40
2022-08-12T04:32:46.654Z,20.30
2022-08-12T04:35:18.351Z,20.20
2022-08-12T04:37:59.717Z,20.20
2022-08-12T04:40:35.550Z,20.10
2022-08-12T04:43:54.453Z,20.00
2022-08-12T04:46:00.015Z,20.00
2022-08-12T04:48:32.336Z,19.90
2022-08-12T04:51:04.098Z,19.90
2022-08-12T04:53:35.827Z,19.80
2022-08-12T04:56:09.806Z,19.80
2022-08-12T04:58:41.953Z,19.70
2022-08-12T05:01:14.209Z,19.70
2022-08-12T05:03:46.396Z,19.60
2022-08-12T05:06:26.661Z,19.60
2022-08-12T05:08:58.469Z,19.50
2022-08-12T05:11:34.729Z,19.40
2022-08-12T05:14:06.104Z,19.40
2022-08-12T05:16:38.219Z,19.30
2022-08-12T05:19:12.782Z,19.30
2022-08-12T05:21:49.880Z,19.30
2022-08-12T05:24:21.247Z,19.20
2022-08-12T05:26:54.690Z,19.20
2022-08-12T05:30:07.559Z,19.10
2022-08-12T05:32:21.636Z,19.10
2022-08-12T05:34:54.405Z,19.00
2022-08-12T05:37:27.089Z,19.00
2022-08-12T05:39:58.375Z,18.90
2022-08-12T05:42:34.610Z,18.90
2022-08-12T05:47:53.457Z,18.80
2022-08-12T05:50:39.243Z,18.80
2022-08-12T05:53:10.929Z,18.70
2022-08-12T05:55:47.516Z,18.60
2022-08-12T05:58:21.520Z,18.60
2022-08-12T06:00:52.970Z,18.50
2022-08-12T06:03:26.493Z,18.50
2022-08-12T06:05:58.341Z,18.40
2022-08-12T06:08:30.393Z,18.40
2022-08-12T06:11:02.870Z,18.40
2022-08-12T06:13:53.129Z,18.40
2022-08-12T06:16:29.122Z,18.40
2022-08-12T06:19:00.393Z,18.40
2022-08-12T06:21:32.308Z,18.40
2022-08-12T06:24:05.192Z,18.30
2022-08-12T06:26:40.907Z,18.30
2022-08-12T06:30:07.534Z,18.30
2022-08-12T06:32:21.936Z,18.30
2022-08-12T06:35:24.388Z,18.20
2022-08-12T06:38:07.253Z,18.10
2022-08-12T06:40:56.171Z,18.10
2022-08-12T06:43:27.849Z,18.00
2022-08-12T06:46:23.117Z,18.00
2022-08-12T06:48:59.338Z,17.90
2022-08-12T06:51:33.168Z,17.90
2022-08-12T06:54:06.497Z,17.80
2022-08-12T06:57:02.977Z,17.80
2022-08-12T06:59:29.205Z,17.80
2022-08-12T07:02:02.890Z,17.70
2022-08-12T07:04:37.825Z,17.70
2022-08-12T07:07:10.643Z,17.60
2022-08-12T07:10:01.328Z,17.60
2022-08-12T07:12:34.787Z,17.50
2022-08-12T07:15:06.770Z,17.50
2022-08-12T07:17:41.196Z,17.40
2022-08-12T07:20:35.836Z,17.40
2022-08-12T07:23:08.567Z,17.40
2022-08-12T07:25:41.859Z,17.40
2022-08-12T07:28:16.906Z,17.40
2022-08-12T07:30:50.898Z,17.30
2022-08-12T07:33:29.259Z,17.30
2022-08-12T07:36:03.462Z,17.30
2022-08-12T07:38:36.623Z,17.30
2022-08-12T07:41:15.619Z,17.20
2022-08-12T07:43:50.922Z,17.10
2022-08-12T07:46:24.119Z,17.10
2022-08-12T07:49:00.766Z,17.10
2022-08-12T07:51:33.023Z,17.10
2022-08-12T07:54:05.492Z,17.00
2022-08-12T07:56:36.470Z,17.00
2022-08-12T07:59:09.137Z,17.10
2022-08-12T08:01:40.950Z,17.10
2022-08-12T08:04:33.766Z,17.00
2022-08-12T08:07:05.085Z,17.00
2022-08-12T08:09:36.757Z,17.00
2022-08-12T08:12:24.702Z,17.00
2022-08-12T08:14:59.160Z,16.90
2022-08-12T08:17:31.180Z,16.90
2022-08-12T08:20:04.757Z,16.90
2022-08-12T08:22:41.997Z,16.90
2022-08-12T08:25:35.704Z,16.80
2022-08-12T08:28:07.056Z,16.80
2022-08-12T08:30:40.963Z,16.70
2022-08-12T08:33:22.956Z,16.70
2022-08-12T08:36:23.791Z,16.70
2022-08-12T08:38:58.116Z,16.60
2022-08-12T08:42:16.224Z,16.60
2022-08-12T08:44:40.449Z,16.60
2022-08-12T08:47:13.145Z,16.50
2022-08-12T08:49:44.926Z,16.40
2022-08-12T08:52:40.214Z,16.40
2022-08-12T08:55:14.888Z,16.40
2022-08-12T08:57:47.149Z,16.40
2022-08-12T09:00:18.918Z,16.40
2022-08-12T09:02:58.722Z,16.40
2022-08-12T09:05:43.250Z,16.40
2022-08-12T09:08:26.783Z,16.30
2022-08-12T09:12:07.496Z,16.30
2022-08-12T09:14:17.864Z,16.30
2022-08-12T09:16:51.907Z,16.30
2022-08-12T09:19:27.335Z,16.30
2022-08-12T09:22:00.790Z,16.30
2022-08-12T09:24:34.581Z,16.30
2022-08-12T09:27:08.093Z,16.30
2022-08-12T09:30:10.108Z,16.20
2022-08-12T09:33:05.200Z,16.10
2022-08-12T09:35:28.508Z,16.10
2022-08-12T09:38:01.183Z,16.00
2022-08-12T09:40:57.865Z,15.90
2022-08-12T09:43:47.014Z,16.00
2022-08-12T09:46:25.962Z,16.00
2022-08-12T09:48:57.804Z,16.00
2022-08-12T09:51:38.226Z,15.90
2022-08-12T09:54:34.281Z,15.80
2022-08-12T09:58:08.085Z,15.80
2022-08-12T10:00:15.278Z,15.80
2022-08-12T10:03:08.766Z,15.80
2022-08-12T10:06:19.991Z,15.80
2022-08-12T10:08:53.594Z,15.80
2022-08-12T10:12:11.126Z,15.80
2022-08-12T10:14:50.479Z,15.80
2022-08-12T10:17:25.817Z,15.80
2022-08-12T10:19:59.757Z,15.80
2022-08-12T10:22:39.197Z,15.70
2022-08-12T10:26:35.548Z,15.70
2022-08-12T10:28:39.236Z,15.70
2022-08-12T10:31:16.314Z,15.60
2022-08-12T10:34:05.175Z,15.60
2022-08-12T10:36:40.809Z,15.60
2022-08-12T10:40:01.310Z,15.50
2022-08-12T10:42:29.392Z,15.50
2022-08-12T10:45:04.617Z,15.50
2022-08-12T10:48:19.134Z,15.50
2022-08-12T10:50:58.318Z,15.50
2022-08-12T10:53:43.604Z,15.50
2022-08-12T10:56:14.637Z,15.50
2022-08-12T10:58:47.138Z,15.50
2022-08-12T11:01:49.458Z,15.50
2022-08-12T11:04:22.489Z,15.50
2022-08-12T11:08:35.087Z,15.40
2022-08-12T11:10:02.147Z,15.40
2022-08-12T11:12:55.254Z,15.40
2022-08-12T11:15:33.315Z,15.30
2022-08-12T11:18:19.015Z,15.20
2022-08-12T11:20:52.421Z,15.10
2022-08-12T11:23:36.218Z,15.10
2022-08-12T11:26:10.640Z,15.10
2022-08-12T11:28:42.335Z,15.00
2022-08-12T11:31:30.566Z,15.00
2022-08-12T11:34:51.539Z,15.00
2022-08-12T11:37:24.830Z,14.90
2022-08-12T11:42:46.001Z,14.90
2022-08-12T11:45:19.631Z,14.90
2022-08-12T11:47:51.467Z,14.90
2022-08-12T11:50:32.160Z,14.90
2022-08-12T11:53:06.399Z,14.90
2022-08-12T11:55:59.427Z,14.90
2022-08-12T12:00:55.433Z,14.90
2022-08-12T12:02:02.458Z,14.90
2022-08-12T12:04:29.048Z,14.90
2022-08-12T12:07:06.694Z,14.90
2022-08-12T12:09:52.608Z,14.90
2022-08-12T12:12:26.205Z,14.80
2022-08-12T12:15:01.615Z,14.80
2022-08-12T12:17:41.081Z,14.80
2022-08-12T12:20:14.325Z,14.60
2022-08-12T12:22:46.021Z,14.60
2022-08-12T12:25:22.057Z,14.60
2022-08-12T12:28:35.439Z,14.60
2022-08-12T12:31:04.541Z,14.60
2022-08-12T12:33:56.837Z,14.50
2022-08-12T12:36:30.157Z,14.50
2022-08-12T12:39:02.333Z,14.50
2022-08-12T12:42:41.644Z,14.50
2022-08-12T12:44:38.689Z,14.50
2022-08-12T12:47:29.325Z,14.40
2022-08-12T12:50:02.086Z,14.40
2022-08-12T12:52:36.793Z,14.40
2022-08-12T12:55:08.470Z,14.40
2022-08-12T12:58:00.545Z,14.50
2022-08-12T13:00:33.725Z,14.50
2022-08-12T13:03:05.028Z,14.30
2022-08-12T13:05:42.585Z,14.30
2022-08-12T13:08:27.845Z,14.30
2022-08-12T13:11:04.471Z,14.40
2022-08-12T13:14:08.228Z,14.40
2022-08-12T13:16:32.515Z,14.40
2022-08-12T13:19:04.427Z,14.50
2022-08-12T13:21:59.175Z,14.60
2022-08-12T13:24:31.566Z,14.40
2022-08-12T13:27:04.339Z,14.40
2022-08-12T13:29:41.018Z,14.30
2022-08-12T13:32:28.296Z,14.40
2022-08-12T13:35:20.309Z,14.40
2022-08-12T13:37:56.639Z,14.40
2022-08-12T13:40:32.466Z,14.50
2022-08-12T13:43:07.643Z,14.60
2022-08-12T13:45:41.044Z,14.70
2022-08-12T13:48:12.722Z,14.70
2022-08-12T13:50:50.961Z,14.70
2022-08-12T13:53:24.062Z,14.70
2022-08-12T13:55:59.426Z,14.70
2022-08-12T13:58:39.032Z,14.70
2022-08-12T14:01:16.084Z,14.80
2022-08-12T14:03:50.668Z,14.80
2022-08-12T14:06:25.946Z,14.90
2022-08-12T14:09:14.413Z,14.90
2022-08-12T14:11:59.163Z,15.00
2022-08-12T14:14:35.533Z,15.10
2022-08-12T14:17:10.877Z,15.20
2022-08-12T14:20:02.916Z,15.30
2022-08-12T14:22:38.205Z,15.40
2022-08-12T14:25:10.489Z,15.50
2022-08-12T14:28:03.379Z,15.70
2022-08-12T14:30:34.030Z,15.90
2022-08-12T14:33:11.144Z,16.00
2022-08-12T14:35:46.050Z,16.20
2022-08-12T14:38:25.892Z,16.40
2022-08-12T14:40:59.488Z,16.50
2022-08-12T14:43:44.300Z,16.60
2022-08-12T14:46:28.277Z,16.60
2022-08-12T14:49:27.479Z,16.70
2022-08-12T14:52:55.966Z,16.70
2022-08-12T14:56:58.737Z,16.70
2022-08-12T14:57:57.656Z,16.70
2022-08-12T15:00:52.238Z,16.70
2022-08-12T15:03:36.765Z,16.80
2022-08-12T15:06:38.944Z,16.80
2022-08-12T15:09:16.111Z,16.90
2022-08-12T15:12:03.052Z,17.10
2022-08-12T15:14:38.014Z,17.20
2022-08-12T15:17:09.406Z,17.20
2022-08-12T15:20:27.930Z,17.40
2022-08-12T15:22:37.442Z,17.60
2022-08-12T15:25:17.557Z,17.70
2022-08-12T15:28:04.757Z,17.70
2022-08-12T15:30:40.213Z,17.80
2022-08-12T15:33:12.384Z,17.90
2022-08-12T15:35:52.060Z,18.10
2022-08-12T15:38:29.113Z,18.30
2022-08-12T15:41:01.018Z,18.40
2022-08-12T15:43:51.521Z,18.40
2022-08-12T15:46:25.683Z,18.40
2022-08-12T15:48:57.562Z,18.50
2022-08-12T15:51:59.164Z,18.70
2022-08-12T15:54:33.825Z,18.90
2022-08-12T15:57:10.712Z,18.90
2022-08-12T16:00:03.699Z,19.00
2022-08-12T16:02:50.688Z,18.80
2022-08-12T16:08:17.219Z,18.70
2022-08-12T16:10:54.771Z,18.80
2022-08-12T16:13:38.128Z,18.90
2022-08-12T16:16:24.729Z,19.20
2022-08-12T16:19:04.487Z,19.20
2022-08-12T16:24:27.903Z,19.20
2022-08-12T16:27:02.828Z,19.20
2022-08-12T16:29:53.279Z,19.40
2022-08-12T16:32:31.069Z,19.50
2022-08-12T16:35:08.270Z,19.50
2022-08-12T16:38:25.528Z,19.40
2022-08-12T16:40:40.187Z,19.50
2022-08-12T16:43:27.284Z,19.50
2022-08-12T16:46:05.568Z,19.50
2022-08-12T16:48:51.296Z,19.50
2022-08-12T16:51:24.986Z,19.60
2022-08-12T16:53:58.562Z,19.80
2022-08-12T16:56:35.319Z,19.90
2022-08-12T16:59:52.912Z,20.00
2022-08-12T17:02:31.735Z,20.00
2022-08-12T17:05:07.287Z,20.10
2022-08-12T17:07:53.125Z,20.20
2022-08-12T17:10:36.463Z,20.30
2022-08-12T17:13:11.036Z,20.40
2022-08-12T17:16:05.592Z,20.50
2022-08-12T17:18:43.372Z,20.40
2022-08-12T17:21:40.663Z,20.50
2022-08-12T17:24:30.435Z,20.30
2022-08-12T17:27:09.535Z,20.40
2022-08-12T17:30:01.283Z,20.60
2022-08-12T17:32:38.505Z,20.70
2022-08-12T17:35:30.138Z,20.70
2022-08-12T17:38:14.629Z,20.80
2022-08-12T17:40:50.013Z,21.00
2022-08-12T17:43:54.683Z,21.00
2022-08-12T17:46:24.098Z,21.20
2022-08-12T17:49:19.517Z,21.20
2022-08-12T17:52:02.069Z,21.20
2022-08-12T17:54:38.316Z,21.30
2022-08-12T17:57:16.204Z,21.30
2022-08-12T17:59:49.941Z,21.20
2022-08-12T18:02:29.840Z,21.30
2022-08-12T18:05:10.083Z,21.40
2022-08-12T18:07:42.096Z,21.60
2022-08-12T18:10:36.140Z,21.60
2022-08-12T18:16:04.358Z,21.70
2022-08-12T18:18:39.638Z,21.80
2022-08-12T18:21:17.780Z,21.80
2022-08-12T18:23:54.061Z,21.90
2022-08-12T18:26:27.556Z,21.90
2022-08-12T18:28:59.611Z,21.70
2022-08-12T18:31:44.537Z,21.90
2022-08-12T18:34:27.887Z,22.00
2022-08-12T18:37:26.915Z,22.00
2022-08-12T18:40:10.941Z,22.10
2022-08-12T18:42:43.289Z,22.10
2022-08-12T18:45:31.612Z,22.20
2022-08-12T18:48:19.508Z,22.20
2022-08-12T18:50:52.000Z,22.30
2022-08-12T18:54:05.247Z,22.30
2022-08-12T18:56:33.352Z,22.40
2022-08-12T18:59:08.289Z,22.50
2022-08-12T19:02:13.436Z,22.60
2022-08-12T19:04:36.364Z,22.50
2022-08-12T19:07:09.024Z,22.60
2022-08-12T19:09:58.907Z,22.70
2022-08-12T19:12:57.412Z,22.70
2022-08-12T19:15:31.108Z,22.80
2022-08-12T19:18:03.485Z,22.50
2022-08-12T19:20:36.964Z,22.50
2022-08-12T19:23:16.372Z,22.40
2022-08-12T19:26:00.865Z,22.50
2022-08-12T19:28:38.674Z,22.50
2022-08-12T19:31:56.774Z,22.60
2022-08-12T19:35:13.873Z,22.70
2022-08-12T19:38:02.620Z,22.70
2022-08-12T19:40:31.893Z,22.90
2022-08-12T19:43:21.028Z,23.00
2022-08-12T19:45:56.476Z,22.90
2022-08-12T19:48:33.024Z,23.00
2022-08-12T19:51:08.980Z,23.10
2022-08-12T19:53:57.769Z,23.10
2022-08-12T19:56:30.204Z,23.00
2022-08-12T19:59:21.653Z,22.90
2022-08-12T20:02:02.290Z,23.10
2022-08-12T20:04:38.593Z,23.00
2022-08-12T20:07:23.636Z,23.00
2022-08-12T20:09:58.939Z,23.10
2022-08-12T20:12:34.825Z,23.20
2022-08-12T20:15:11.091Z,23.40
2022-08-12T20:17:51.130Z,23.50
2022-08-12T20:20:27.665Z,23.60
2022-08-12T20:22:59.367Z,23.70
2022-08-12T20:25:52.620Z,23.90
2022-08-12T20:28:26.461Z,24.00
2022-08-12T20:31:02.300Z,23.90
2022-08-12T20:33:50.685Z,24.00
2022-08-12T20:36:41.096Z,23.80
2022-08-12T20:39:34.104Z,23.90
2022-08-12T20:42:08.231Z,24.00
2022-08-12T20:44:41.770Z,24.10
2022-08-12T20:47:18.220Z,24.30
2022-08-12T20:49:55.338Z,24.40
2022-08-12T20:52:33.937Z,24.30
2022-08-12T20:55:06.376Z,24.30
2022-08-12T20:58:02.022Z,24.40
2022-08-12T21:00:36.862Z,24.40
2022-08-12T21:03:28.781Z,24.70
2022-08-12T21:06:19.589Z,24.50
2022-08-12T21:08:50.478Z,24.80
2022-08-12T21:11:23.325Z,24.90
2022-08-12T21:13:59.305Z,25.00
2022-08-12T21:16:35.958Z,25.40
2022-08-12T21:19:22.335Z,25.60
2022-08-12T21:21:58.773Z,25.80
2022-08-12T21:24:32.281Z,26.00
2022-08-12T21:27:07.376Z,25.70
2022-08-12T21:29:40.144Z,25.70
2022-08-12T21:32:37.361Z,26.10
2022-08-12T21:35:19.405Z,26.50
2022-08-12T21:37:53.180Z,26.50
2022-08-12T21:40:37.258Z,26.70
2022-08-12T21:43:23.693Z,26.50
2022-08-12T21:46:00.715Z,26.50
2022-08-12T21:48:34.102Z,26.20
2022-08-12T21:51:23.434Z,26.70
2022-08-12T21:54:07.329Z,26.90
2022-08-12T21:56:41.995Z,26.40
2022-08-12T21:59:16.339Z,26.40
2022-08-12T22:01:49.762Z,26.40
2022-08-12T22:04:39.295Z,26.90
2022-08-12T22:07:18.851Z,27.00
2022-08-12T22:09:57.135Z,27.20
2022-08-12T22:12:39.508Z,27.10
2022-08-12T22:15:21.698Z,27.30
2022-08-12T22:18:10.452Z,27.60
2022-08-12T22:20:42.034Z,27.60
2022-08-12T22:23:21.427Z,27.50
2022-08-12T22:26:02.119Z,27.70
2022-08-12T22:28:54.475Z,28.00
2022-08-12T22:31:28.904Z,28.30
2022-08-12T22:34:03.862Z,28.40
2022-08-12T22:36:37.781Z,28.60
2022-08-12T22:39:15.889Z,27.90
2022-08-12T22:42:03.432Z,27.60
2022-08-12T22:44:52.654Z,27.90
2022-08-12T22:47:54.645Z,27.60
2022-08-12T22:50:30.026Z,27.50
2022-08-12T22:53:15.793Z,27.50
2022-08-12T22:56:06.501Z,27.60
2022-08-12T22:58:40.816Z,27.20
2022-08-12T23:01:51.580Z,27.40
2022-08-12T23:04:10.215Z,27.40
2022-08-12T23:06:45.294Z,26.90
2022-08-12T23:09:19.554Z,26.70
2022-08-12T23:11:59.559Z,26.30
2022-08-12T23:14:30.484Z,26.30
2022-08-12T23:17:01.963Z,26.20
2022-08-12T23:19:38.910Z,26.20
2022-08-12T23:22:36.865Z,26.60
2022-08-12T23:25:19.000Z,27.20
2022-08-12T23:28:29.623Z,27.40
2022-08-12T23:31:06.648Z,27.60
2022-08-12T23:34:01.393Z,27.90
2022-08-12T23:36:39.893Z,28.00
2022-08-12T23:40:13.569Z,28.30
2022-08-12T23:42:18.232Z,28.50
2022-08-12T23:44:52.726Z,28.60
2022-08-12T23:47:24.533Z,28.50
2022-08-12T23:49:59.807Z,28.60
2022-08-12T23:52:34.452Z,28.30
2022-08-12T23:55:25.195Z,28.00
2022-08-12T23:58:21.589Z,27.40
